sensor_id;sensor_type;location;lat;lon;timestamp;P1;durP1;ratioP1;P2;durP2;ratioP2
22068;SDS011;13887;57.196;-2.100;2022-08-25T00:00:11;14.03;;;13.40;;
22068;SDS011;13887;57.196;-2.100;2022-08-25T00:02:38;13.67;;;13.07;;
22068;SDS011;13887;57.196;-2.100;2022-08-25T00:05:06;14.00;;;13.43;;
22068;SDS011;13887;57.196;-2.100;2022-08-25T00:07:35;14.07;;;13.47;;
22068;SDS011;13887;57.196;-2.100;2022-08-25T00:10:03;14.23;;;13.53;;
22068;SDS011;13887;57.196;-2.100;2022-08-25T00:12:31;13.63;;;13.13;;
22068;SDS011;13887;57.196;-2.100;2022-08-25T00:14:58;13.70;;;13.00;;
22068;SDS011;13887;57.196;-2.100;2022-08-25T00:17:25;14.10;;;13.50;;
22068;SDS011;13887;57.196;-2.100;2022-08-25T00:19:52;13.93;;;13.20;;
22068;SDS011;13887;57.196;-2.100;2022-08-25T00:22:19;13.43;;;12.93;;
22068;SDS011;13887;57.196;-2.100;2022-08-25T00:24:46;13.97;;;13.37;;
22068;SDS011;13887;57.196;-2.100;2022-08-25T00:27:13;13.77;;;13.10;;
22068;SDS011;13887;57.196;-2.100;2022-08-25T00:29:40;13.57;;;12.97;;
22068;SDS011;13887;57.196;-2.100;2022-08-25T00:32:07;14.07;;;13.33;;
22068;SDS011;13887;57.196;-2.100;2022-08-25T00:34:35;14.27;;;13.37;;
22068;SDS011;13887;57.196;-2.100;2022-08-25T00:37:04;13.67;;;13.03;;
22068;SDS011;13887;57.196;-2.100;2022-08-25T00:39:34;14.57;;;13.70;;
22068;SDS011;13887;57.196;-2.100;2022-08-25T00:42:02;13.97;;;13.33;;
22068;SDS011;13887;57.196;-2.100;2022-08-25T00:44:37;13.87;;;13.27;;
22068;SDS011;13887;57.196;-2.100;2022-08-25T00:47:05;13.83;;;13.23;;
22068;SDS011;13887;57.196;-2.100;2022-08-25T00:49:36;14.10;;;13.47;;
22068;SDS011;13887;57.196;-2.100;2022-08-25T00:52:14;13.77;;;13.27;;
22068;SDS011;13887;57.196;-2.100;2022-08-25T00:54:50;14.23;;;13.47;;
22068;SDS011;13887;57.196;-2.100;2022-08-25T00:57:44;13.93;;;13.33;;
22068;SDS011;13887;57.196;-2.100;2022-08-25T01:00:28;13.87;;;13.20;;
22068;SDS011;13887;57.196;-2.100;2022-08-25T01:03:02;14.40;;;13.80;;
22068;SDS011;13887;57.196;-2.100;2022-08-25T01:05:30;14.23;;;13.43;;
22068;SDS011;13887;57.196;-2.100;2022-08-25T01:07:58;14.00;;;13.40;;
22068;SDS011;13887;57.196;-2.100;2022-08-25T01:10:32;14.60;;;13.80;;
22068;SDS011;13887;57.196;-2.100;2022-08-25T01:13:04;13.83;;;13.33;;
22068;SDS011;13887;57.196;-2.100;2022-08-25T01:15:42;13.70;;;13.10;;
22068;SDS011;13887;57.196;-2.100;2022-08-25T01:18:10;13.70;;;13.10;;
22068;SDS011;13887;57.196;-2.100;2022-08-25T01:20:37;13.70;;;13.00;;
22068;SDS011;13887;57.196;-2.100;2022-08-25T01:23:05;13.93;;;13.23;;
22068;SDS011;13887;57.196;-2.100;2022-08-25T01:28:12;13.63;;;13.03;;
22068;SDS011;13887;57.196;-2.100;2022-08-25T01:30:39;13.87;;;13.10;;
22068;SDS011;13887;57.196;-2.100;2022-08-25T01:33:08;13.60;;;12.90;;
22068;SDS011;13887;57.196;-2.100;2022-08-25T01:35:36;13.60;;;12.97;;
22068;SDS011;13887;57.196;-2.100;2022-08-25T01:38:05;13.70;;;13.00;;
22068;SDS011;13887;57.196;-2.100;2022-08-25T01:40:33;13.90;;;13.27;;
22068;SDS011;13887;57.196;-2.100;2022-08-25T01:43:06;13.93;;;13.30;;
22068;SDS011;13887;57.196;-2.100;2022-08-25T01:45:39;14.40;;;13.50;;
22068;SDS011;13887;57.196;-2.100;2022-08-25T01:48:11;13.87;;;13.37;;
22068;SDS011;13887;57.196;-2.100;2022-08-25T01:50:40;14.00;;;13.40;;
22068;SDS011;13887;57.196;-2.100;2022-08-25T01:53:10;13.90;;;13.30;;
22068;SDS011;13887;57.196;-2.100;2022-08-25T01:55:43;14.10;;;13.40;;
22068;SDS011;13887;57.196;-2.100;2022-08-25T01:58:33;13.73;;;12.93;;
22068;SDS011;13887;57.196;-2.100;2022-08-25T02:01:03;13.30;;;12.70;;
22068;SDS011;13887;57.196;-2.100;2022-08-25T02:03:35;13.80;;;13.10;;
22068;SDS011;13887;57.196;-2.100;2022-08-25T02:06:09;13.80;;;13.20;;
22068;SDS011;13887;57.196;-2.100;2022-08-25T02:08:38;14.20;;;13.40;;
22068;SDS011;13887;57.196;-2.100;2022-08-25T02:11:05;14.07;;;13.40;;
22068;SDS011;13887;57.196;-2.100;2022-08-25T02:13:38;13.23;;;12.60;;
22068;SDS011;13887;57.196;-2.100;2022-08-25T02:16:06;13.37;;;12.77;;
22068;SDS011;13887;57.196;-2.100;2022-08-25T02:18:34;14.47;;;13.67;;
22068;SDS011;13887;57.196;-2.100;2022-08-25T02:21:02;13.90;;;13.20;;
22068;SDS011;13887;57.196;-2.100;2022-08-25T02:23:29;14.10;;;13.40;;
22068;SDS011;13887;57.196;-2.100;2022-08-25T02:25:56;13.60;;;13.00;;
22068;SDS011;13887;57.196;-2.100;2022-08-25T02:28:23;14.13;;;13.43;;
22068;SDS011;13887;57.196;-2.100;2022-08-25T02:30:50;13.53;;;12.80;;
22068;SDS011;13887;57.196;-2.100;2022-08-25T02:33:24;13.77;;;13.07;;
22068;SDS011;13887;57.196;-2.100;2022-08-25T02:35:51;13.90;;;13.17;;
22068;SDS011;13887;57.196;-2.100;2022-08-25T02:38:18;14.17;;;13.23;;
22068;SDS011;13887;57.196;-2.100;2022-08-25T02:40:45;13.87;;;13.07;;
22068;SDS011;13887;57.196;-2.100;2022-08-25T02:43:12;13.87;;;13.00;;
22068;SDS011;13887;57.196;-2.100;2022-08-25T02:45:39;13.90;;;13.20;;
22068;SDS011;13887;57.196;-2.100;2022-08-25T02:48:07;13.67;;;12.90;;
22068;SDS011;13887;57.196;-2.100;2022-08-25T02:50:33;13.97;;;13.27;;
22068;SDS011;13887;57.196;-2.100;2022-08-25T02:53:00;13.10;;;12.60;;
22068;SDS011;13887;57.196;-2.100;2022-08-25T02:55:27;13.80;;;13.00;;
22068;SDS011;13887;57.196;-2.100;2022-08-25T02:57:54;13.50;;;12.90;;
22068;SDS011;13887;57.196;-2.100;2022-08-25T03:00:21;14.27;;;13.33;;
22068;SDS011;13887;57.196;-2.100;2022-08-25T03:02:48;13.97;;;13.27;;
22068;SDS011;13887;57.196;-2.100;2022-08-25T03:05:15;13.60;;;12.90;;
22068;SDS011;13887;57.196;-2.100;2022-08-25T03:07:42;13.53;;;12.90;;
22068;SDS011;13887;57.196;-2.100;2022-08-25T03:10:11;13.10;;;12.60;;
22068;SDS011;13887;57.196;-2.100;2022-08-25T03:12:41;14.10;;;13.40;;
22068;SDS011;13887;57.196;-2.100;2022-08-25T03:15:08;13.87;;;13.17;;
22068;SDS011;13887;57.196;-2.100;2022-08-25T03:17:38;13.53;;;13.03;;
22068;SDS011;13887;57.196;-2.100;2022-08-25T03:20:09;13.77;;;13.03;;
22068;SDS011;13887;57.196;-2.100;2022-08-25T03:22:36;13.90;;;13.20;;
22068;SDS011;13887;57.196;-2.100;2022-08-25T03:25:03;14.07;;;13.40;;
22068;SDS011;13887;57.196;-2.100;2022-08-25T03:27:50;13.83;;;13.13;;
22068;SDS011;13887;57.196;-2.100;2022-08-25T03:30:17;13.23;;;12.73;;
22068;SDS011;13887;57.196;-2.100;2022-08-25T03:32:44;13.20;;;12.63;;
22068;SDS011;13887;57.196;-2.100;2022-08-25T03:35:11;13.80;;;13.00;;
22068;SDS011;13887;57.196;-2.100;2022-08-25T03:37:38;14.10;;;13.40;;
22068;SDS011;13887;57.196;-2.100;2022-08-25T03:40:07;13.93;;;13.13;;
22068;SDS011;13887;57.196;-2.100;2022-08-25T03:42:42;13.50;;;12.90;;
22068;SDS011;13887;57.196;-2.100;2022-08-25T03:45:11;13.70;;;13.00;;
22068;SDS011;13887;57.196;-2.100;2022-08-25T03:47:39;13.57;;;12.97;;
22068;SDS011;13887;57.196;-2.100;2022-08-25T03:50:07;13.53;;;12.93;;
22068;SDS011;13887;57.196;-2.100;2022-08-25T03:52:36;13.90;;;13.30;;
22068;SDS011;13887;57.196;-2.100;2022-08-25T03:55:08;13.47;;;12.87;;
22068;SDS011;13887;57.196;-2.100;2022-08-25T03:57:36;14.10;;;13.37;;
22068;SDS011;13887;57.196;-2.100;2022-08-25T04:00:05;14.10;;;13.40;;
22068;SDS011;13887;57.196;-2.100;2022-08-25T04:02:37;13.70;;;13.00;;
22068;SDS011;13887;57.196;-2.100;2022-08-25T04:05:05;13.73;;;13.13;;
22068;SDS011;13887;57.196;-2.100;2022-08-25T04:07:32;13.57;;;12.97;;
22068;SDS011;13887;57.196;-2.100;2022-08-25T04:10:00;14.27;;;13.20;;
22068;SDS011;13887;57.196;-2.100;2022-08-25T04:12:27;13.60;;;13.00;;
22068;SDS011;13887;57.196;-2.100;2022-08-25T04:14:54;13.47;;;12.80;;
22068;SDS011;13887;57.196;-2.100;2022-08-25T04:17:21;13.90;;;13.17;;
22068;SDS011;13887;57.196;-2.100;2022-08-25T04:19:48;13.90;;;13.27;;
22068;SDS011;13887;57.196;-2.100;2022-08-25T04:22:16;13.43;;;12.83;;
22068;SDS011;13887;57.196;-2.100;2022-08-25T04:24:43;13.67;;;13.00;;
22068;SDS011;13887;57.196;-2.100;2022-08-25T04:27:10;13.57;;;12.90;;
22068;SDS011;13887;57.196;-2.100;2022-08-25T04:29:37;13.50;;;12.80;;
22068;SDS011;13887;57.196;-2.100;2022-08-25T04:32:04;13.40;;;12.77;;
22068;SDS011;13887;57.196;-2.100;2022-08-25T04:34:31;14.20;;;13.50;;
22068;SDS011;13887;57.196;-2.100;2022-08-25T04:37:01;13.90;;;13.20;;
22068;SDS011;13887;57.196;-2.100;2022-08-25T04:39:30;14.10;;;13.50;;
22068;SDS011;13887;57.196;-2.100;2022-08-25T04:41:57;14.33;;;13.40;;
22068;SDS011;13887;57.196;-2.100;2022-08-25T04:44:26;14.43;;;13.70;;
22068;SDS011;13887;57.196;-2.100;2022-08-25T04:46:53;15.00;;;14.30;;
22068;SDS011;13887;57.196;-2.100;2022-08-25T04:49:20;14.27;;;13.57;;
22068;SDS011;13887;57.196;-2.100;2022-08-25T04:51:47;14.63;;;13.97;;
22068;SDS011;13887;57.196;-2.100;2022-08-25T04:54:15;14.13;;;13.47;;
22068;SDS011;13887;57.196;-2.100;2022-08-25T04:56:43;15.00;;;14.27;;
22068;SDS011;13887;57.196;-2.100;2022-08-25T04:59:11;14.90;;;14.20;;
22068;SDS011;13887;57.196;-2.100;2022-08-25T05:01:40;14.93;;;14.17;;
22068;SDS011;13887;57.196;-2.100;2022-08-25T05:04:09;14.57;;;13.87;;
22068;SDS011;13887;57.196;-2.100;2022-08-25T05:06:54;15.20;;;14.33;;
22068;SDS011;13887;57.196;-2.100;2022-08-25T05:09:21;14.80;;;14.07;;
22068;SDS011;13887;57.196;-2.100;2022-08-25T05:11:50;15.23;;;14.53;;
22068;SDS011;13887;57.196;-2.100;2022-08-25T05:14:17;14.87;;;14.00;;
22068;SDS011;13887;57.196;-2.100;2022-08-25T05:16:52;15.03;;;14.40;;
22068;SDS011;13887;57.196;-2.100;2022-08-25T05:19:20;14.80;;;14.10;;
22068;SDS011;13887;57.196;-2.100;2022-08-25T05:21:49;14.77;;;14.13;;
22068;SDS011;13887;57.196;-2.100;2022-08-25T05:24:17;14.83;;;14.13;;
22068;SDS011;13887;57.196;-2.100;2022-08-25T05:26:44;15.27;;;14.57;;
22068;SDS011;13887;57.196;-2.100;2022-08-25T05:29:11;15.73;;;14.73;;
22068;SDS011;13887;57.196;-2.100;2022-08-25T05:31:40;15.20;;;14.50;;
22068;SDS011;13887;57.196;-2.100;2022-08-25T05:34:13;14.93;;;14.23;;
22068;SDS011;13887;57.196;-2.100;2022-08-25T05:36:40;14.50;;;13.80;;
22068;SDS011;13887;57.196;-2.100;2022-08-25T05:39:09;14.73;;;14.03;;
22068;SDS011;13887;57.196;-2.100;2022-08-25T05:41:36;14.63;;;13.83;;
22068;SDS011;13887;57.196;-2.100;2022-08-25T05:44:03;14.20;;;13.60;;
22068;SDS011;13887;57.196;-2.100;2022-08-25T05:46:30;15.00;;;14.13;;
22068;SDS011;13887;57.196;-2.100;2022-08-25T05:48:58;14.80;;;14.10;;
22068;SDS011;13887;57.196;-2.100;2022-08-25T05:51:25;15.40;;;14.70;;
22068;SDS011;13887;57.196;-2.100;2022-08-25T05:53:52;14.87;;;14.00;;
22068;SDS011;13887;57.196;-2.100;2022-08-25T05:56:20;14.47;;;13.77;;
22068;SDS011;13887;57.196;-2.100;2022-08-25T05:58:47;15.10;;;14.10;;
22068;SDS011;13887;57.196;-2.100;2022-08-25T06:01:23;14.97;;;14.17;;
22068;SDS011;13887;57.196;-2.100;2022-08-25T06:04:11;14.97;;;14.27;;
22068;SDS011;13887;57.196;-2.100;2022-08-25T06:06:41;15.33;;;14.33;;
22068;SDS011;13887;57.196;-2.100;2022-08-25T06:09:09;15.07;;;14.37;;
22068;SDS011;13887;57.196;-2.100;2022-08-25T06:11:37;15.20;;;14.37;;
22068;SDS011;13887;57.196;-2.100;2022-08-25T06:14:06;15.00;;;14.30;;
22068;SDS011;13887;57.196;-2.100;2022-08-25T06:16:34;14.37;;;13.77;;
22068;SDS011;13887;57.196;-2.100;2022-08-25T06:19:01;14.90;;;14.10;;
22068;SDS011;13887;57.196;-2.100;2022-08-25T06:21:28;14.43;;;13.73;;
22068;SDS011;13887;57.196;-2.100;2022-08-25T06:23:56;15.00;;;14.30;;
22068;SDS011;13887;57.196;-2.100;2022-08-25T06:26:25;14.77;;;13.87;;
22068;SDS011;13887;57.196;-2.100;2022-08-25T06:28:52;14.57;;;13.87;;
22068;SDS011;13887;57.196;-2.100;2022-08-25T06:31:19;14.57;;;13.87;;
22068;SDS011;13887;57.196;-2.100;2022-08-25T06:33:48;14.10;;;13.50;;
22068;SDS011;13887;57.196;-2.100;2022-08-25T06:36:15;15.73;;;14.20;;
22068;SDS011;13887;57.196;-2.100;2022-08-25T06:38:42;14.70;;;13.60;;
22068;SDS011;13887;57.196;-2.100;2022-08-25T06:41:11;16.37;;;15.03;;
22068;SDS011;13887;57.196;-2.100;2022-08-25T06:43:39;14.17;;;13.30;;
22068;SDS011;13887;57.196;-2.100;2022-08-25T06:46:16;14.53;;;13.60;;
22068;SDS011;13887;57.196;-2.100;2022-08-25T06:48:44;14.20;;;13.50;;
22068;SDS011;13887;57.196;-2.100;2022-08-25T06:51:13;13.60;;;12.90;;
22068;SDS011;13887;57.196;-2.100;2022-08-25T06:53:42;14.37;;;13.57;;
22068;SDS011;13887;57.196;-2.100;2022-08-25T06:56:10;14.73;;;13.80;;
22068;SDS011;13887;57.196;-2.100;2022-08-25T06:58:37;14.43;;;13.73;;
22068;SDS011;13887;57.196;-2.100;2022-08-25T07:01:15;14.17;;;13.47;;
22068;SDS011;13887;57.196;-2.100;2022-08-25T07:03:54;14.17;;;13.30;;
22068;SDS011;13887;57.196;-2.100;2022-08-25T07:06:23;14.10;;;13.33;;
22068;SDS011;13887;57.196;-2.100;2022-08-25T07:08:52;14.30;;;13.30;;
22068;SDS011;13887;57.196;-2.100;2022-08-25T07:11:20;14.37;;;13.57;;
22068;SDS011;13887;57.196;-2.100;2022-08-25T07:13:47;13.40;;;12.80;;
22068;SDS011;13887;57.196;-2.100;2022-08-25T07:16:16;14.03;;;13.23;;
22068;SDS011;13887;57.196;-2.100;2022-08-25T07:18:44;13.83;;;13.23;;
22068;SDS011;13887;57.196;-2.100;2022-08-25T07:21:12;14.37;;;13.67;;
22068;SDS011;13887;57.196;-2.100;2022-08-25T07:23:40;13.87;;;13.17;;
22068;SDS011;13887;57.196;-2.100;2022-08-25T07:26:11;14.30;;;13.70;;
22068;SDS011;13887;57.196;-2.100;2022-08-25T07:29:00;13.93;;;13.33;;
22068;SDS011;13887;57.196;-2.100;2022-08-25T07:31:29;14.10;;;13.27;;
22068;SDS011;13887;57.196;-2.100;2022-08-25T07:33:56;13.70;;;13.03;;
22068;SDS011;13887;57.196;-2.100;2022-08-25T07:36:42;13.50;;;12.73;;
22068;SDS011;13887;57.196;-2.100;2022-08-25T07:39:10;13.90;;;13.10;;
22068;SDS011;13887;57.196;-2.100;2022-08-25T07:41:38;13.40;;;12.67;;
22068;SDS011;13887;57.196;-2.100;2022-08-25T07:44:06;13.33;;;12.63;;
22068;SDS011;13887;57.196;-2.100;2022-08-25T07:46:34;12.90;;;12.30;;
22068;SDS011;13887;57.196;-2.100;2022-08-25T07:49:01;13.10;;;12.50;;
22068;SDS011;13887;57.196;-2.100;2022-08-25T07:51:29;13.57;;;12.87;;
22068;SDS011;13887;57.196;-2.100;2022-08-25T07:53:55;13.43;;;12.57;;
22068;SDS011;13887;57.196;-2.100;2022-08-25T07:56:22;13.50;;;12.70;;
22068;SDS011;13887;57.196;-2.100;2022-08-25T07:58:49;13.90;;;12.90;;
22068;SDS011;13887;57.196;-2.100;2022-08-25T08:01:17;12.97;;;12.37;;
22068;SDS011;13887;57.196;-2.100;2022-08-25T08:03:46;13.07;;;12.03;;
22068;SDS011;13887;57.196;-2.100;2022-08-25T08:06:17;12.67;;;12.07;;
22068;SDS011;13887;57.196;-2.100;2022-08-25T08:08:46;13.43;;;12.73;;
22068;SDS011;13887;57.196;-2.100;2022-08-25T08:13:44;14.00;;;13.20;;
22068;SDS011;13887;57.196;-2.100;2022-08-25T08:16:16;13.90;;;13.20;;
22068;SDS011;13887;57.196;-2.100;2022-08-25T08:18:45;13.60;;;13.00;;
22068;SDS011;13887;57.196;-2.100;2022-08-25T08:21:17;13.63;;;13.03;;
22068;SDS011;13887;57.196;-2.100;2022-08-25T08:23:47;13.67;;;12.97;;
22068;SDS011;13887;57.196;-2.100;2022-08-25T08:26:15;13.80;;;13.03;;
22068;SDS011;13887;57.196;-2.100;2022-08-25T08:28:43;14.50;;;13.80;;
22068;SDS011;13887;57.196;-2.100;2022-08-25T08:31:18;14.20;;;13.50;;
22068;SDS011;13887;57.196;-2.100;2022-08-25T08:33:47;13.90;;;13.20;;
22068;SDS011;13887;57.196;-2.100;2022-08-25T08:36:15;13.73;;;12.97;;
22068;SDS011;13887;57.196;-2.100;2022-08-25T08:38:44;14.97;;;14.17;;
22068;SDS011;13887;57.196;-2.100;2022-08-25T08:49:40;14.57;;;13.67;;
22068;SDS011;13887;57.196;-2.100;2022-08-25T08:58:02;14.60;;;13.80;;
22068;SDS011;13887;57.196;-2.100;2022-08-25T09:00:41;14.33;;;13.53;;
22068;SDS011;13887;57.196;-2.100;2022-08-25T09:03:25;14.00;;;13.30;;
22068;SDS011;13887;57.196;-2.100;2022-08-25T09:06:01;14.83;;;13.80;;
22068;SDS011;13887;57.196;-2.100;2022-08-25T09:08:33;14.47;;;13.67;;
22068;SDS011;13887;57.196;-2.100;2022-08-25T09:11:06;14.30;;;13.40;;
22068;SDS011;13887;57.196;-2.100;2022-08-25T09:16:34;14.33;;;13.63;;
22068;SDS011;13887;57.196;-2.100;2022-08-25T09:28:07;14.40;;;13.60;;
22068;SDS011;13887;57.196;-2.100;2022-08-25T09:30:52;14.33;;;13.53;;
22068;SDS011;13887;57.196;-2.100;2022-08-25T09:33:24;14.00;;;13.30;;
22068;SDS011;13887;57.196;-2.100;2022-08-25T09:35:53;13.77;;;12.80;;
22068;SDS011;13887;57.196;-2.100;2022-08-25T09:38:23;13.73;;;13.20;;
22068;SDS011;13887;57.196;-2.100;2022-08-25T09:40:55;13.23;;;12.60;;
22068;SDS011;13887;57.196;-2.100;2022-08-25T09:48:27;13.40;;;12.70;;
22068;SDS011;13887;57.196;-2.100;2022-08-25T09:51:17;14.17;;;13.27;;
22068;SDS011;13887;57.196;-2.100;2022-08-25T09:56:45;13.90;;;13.20;;
22068;SDS011;13887;57.196;-2.100;2022-08-25T09:59:30;13.63;;;12.93;;
22068;SDS011;13887;57.196;-2.100;2022-08-25T10:07:18;14.63;;;13.73;;
22068;SDS011;13887;57.196;-2.100;2022-08-25T10:10:16;14.27;;;13.50;;
22068;SDS011;13887;57.196;-2.100;2022-08-25T10:12:47;15.13;;;14.37;;
22068;SDS011;13887;57.196;-2.100;2022-08-25T10:18:38;15.40;;;14.00;;
22068;SDS011;13887;57.196;-2.100;2022-08-25T10:20:59;14.97;;;14.20;;
22068;SDS011;13887;57.196;-2.100;2022-08-25T10:23:41;14.97;;;13.80;;
22068;SDS011;13887;57.196;-2.100;2022-08-25T10:26:18;14.43;;;13.67;;
22068;SDS011;13887;57.196;-2.100;2022-08-25T10:32:20;15.27;;;14.17;;
22068;SDS011;13887;57.196;-2.100;2022-08-25T10:35:08;15.37;;;14.30;;
22068;SDS011;13887;57.196;-2.100;2022-08-25T10:37:53;15.60;;;14.57;;
22068;SDS011;13887;57.196;-2.100;2022-08-25T10:40:55;14.63;;;13.73;;
22068;SDS011;13887;57.196;-2.100;2022-08-25T10:47:16;14.20;;;13.40;;
22068;SDS011;13887;57.196;-2.100;2022-08-25T11:01:34;14.73;;;13.83;;
22068;SDS011;13887;57.196;-2.100;2022-08-25T11:04:13;15.10;;;13.90;;
22068;SDS011;13887;57.196;-2.100;2022-08-25T11:09:37;15.07;;;14.13;;
22068;SDS011;13887;57.196;-2.100;2022-08-25T11:12:12;15.07;;;13.90;;
22068;SDS011;13887;57.196;-2.100;2022-08-25T11:14:45;13.83;;;13.13;;
22068;SDS011;13887;57.196;-2.100;2022-08-25T11:17:19;15.97;;;14.63;;
22068;SDS011;13887;57.196;-2.100;2022-08-25T11:19:50;14.53;;;13.73;;
22068;SDS011;13887;57.196;-2.100;2022-08-25T11:22:31;15.97;;;14.80;;
22068;SDS011;13887;57.196;-2.100;2022-08-25T11:25:09;16.30;;;15.20;;
22068;SDS011;13887;57.196;-2.100;2022-08-25T11:27:56;14.87;;;14.03;;
22068;SDS011;13887;57.196;-2.100;2022-08-25T11:30:25;16.33;;;14.80;;
22068;SDS011;13887;57.196;-2.100;2022-08-25T11:32:52;14.93;;;14.07;;
22068;SDS011;13887;57.196;-2.100;2022-08-25T11:46:40;18.73;;;15.30;;
22068;SDS011;13887;57.196;-2.100;2022-08-25T11:49:25;16.00;;;14.67;;
22068;SDS011;13887;57.196;-2.100;2022-08-25T11:52:02;16.37;;;14.97;;
22068;SDS011;13887;57.196;-2.100;2022-08-25T11:54:34;15.43;;;14.33;;
22068;SDS011;13887;57.196;-2.100;2022-08-25T12:02:29;15.63;;;14.57;;
22068;SDS011;13887;57.196;-2.100;2022-08-25T12:04:59;16.07;;;14.60;;
22068;SDS011;13887;57.196;-2.100;2022-08-25T12:07:28;15.67;;;14.47;;
22068;SDS011;13887;57.196;-2.100;2022-08-25T12:24:42;15.87;;;14.77;;
22068;SDS011;13887;57.196;-2.100;2022-08-25T12:27:57;14.97;;;13.97;;
22068;SDS011;13887;57.196;-2.100;2022-08-25T12:30:40;16.47;;;15.00;;
22068;SDS011;13887;57.196;-2.100;2022-08-25T12:36:05;15.03;;;13.93;;
22068;SDS011;13887;57.196;-2.100;2022-08-25T12:38:41;15.20;;;14.10;;
22068;SDS011;13887;57.196;-2.100;2022-08-25T12:41:19;15.60;;;14.30;;
22068;SDS011;13887;57.196;-2.100;2022-08-25T12:43:50;15.47;;;14.57;;
22068;SDS011;13887;57.196;-2.100;2022-08-25T12:57:11;16.20;;;15.10;;
22068;SDS011;13887;57.196;-2.100;2022-08-25T12:59:56;18.10;;;15.37;;
22068;SDS011;13887;57.196;-2.100;2022-08-25T13:16:15;16.53;;;15.23;;
22068;SDS011;13887;57.196;-2.100;2022-08-25T13:18:52;16.07;;;14.83;;
22068;SDS011;13887;57.196;-2.100;2022-08-25T13:21:38;16.10;;;15.03;;
22068;SDS011;13887;57.196;-2.100;2022-08-25T13:26:43;16.77;;;15.57;;
22068;SDS011;13887;57.196;-2.100;2022-08-25T13:29:24;16.47;;;15.37;;
22068;SDS011;13887;57.196;-2.100;2022-08-25T13:32:07;17.37;;;15.83;;
22068;SDS011;13887;57.196;-2.100;2022-08-25T13:34:40;16.80;;;15.60;;
22068;SDS011;13887;57.196;-2.100;2022-08-25T13:37:09;16.57;;;15.10;;
22068;SDS011;13887;57.196;-2.100;2022-08-25T13:43:03;17.53;;;15.73;;
22068;SDS011;13887;57.196;-2.100;2022-08-25T13:45:37;17.10;;;15.47;;
22068;SDS011;13887;57.196;-2.100;2022-08-25T13:48:12;15.87;;;14.87;;
22068;SDS011;13887;57.196;-2.100;2022-08-25T13:51:04;16.40;;;15.17;;
22068;SDS011;13887;57.196;-2.100;2022-08-25T13:53:55;15.87;;;14.97;;
22068;SDS011;13887;57.196;-2.100;2022-08-25T13:56:28;15.70;;;14.80;;
22068;SDS011;13887;57.196;-2.100;2022-08-25T13:59:17;16.40;;;15.20;;
22068;SDS011;13887;57.196;-2.100;2022-08-25T14:01:51;16.43;;;15.10;;
22068;SDS011;13887;57.196;-2.100;2022-08-25T14:09:51;17.60;;;16.27;;
22068;SDS011;13887;57.196;-2.100;2022-08-25T14:12:30;17.37;;;16.10;;
22068;SDS011;13887;57.196;-2.100;2022-08-25T14:17:44;16.93;;;15.70;;
22068;SDS011;13887;57.196;-2.100;2022-08-25T14:20:16;16.77;;;15.47;;
22068;SDS011;13887;57.196;-2.100;2022-08-25T14:22:48;16.37;;;15.10;;
22068;SDS011;13887;57.196;-2.100;2022-08-25T14:25:20;16.43;;;15.03;;
22068;SDS011;13887;57.196;-2.100;2022-08-25T14:27:53;15.43;;;14.47;;
22068;SDS011;13887;57.196;-2.100;2022-08-25T14:30:34;15.47;;;14.27;;
22068;SDS011;13887;57.196;-2.100;2022-08-25T14:33:04;16.40;;;15.17;;
22068;SDS011;13887;57.196;-2.100;2022-08-25T14:35:32;15.77;;;14.53;;
22068;SDS011;13887;57.196;-2.100;2022-08-25T14:38:05;15.90;;;14.80;;
22068;SDS011;13887;57.196;-2.100;2022-08-25T14:40:35;15.67;;;14.63;;
22068;SDS011;13887;57.196;-2.100;2022-08-25T14:43:02;15.60;;;14.80;;
22068;SDS011;13887;57.196;-2.100;2022-08-25T14:45:30;16.93;;;15.63;;
22068;SDS011;13887;57.196;-2.100;2022-08-25T14:47:59;16.27;;;15.10;;
22068;SDS011;13887;57.196;-2.100;2022-08-25T14:50:36;16.10;;;14.83;;
22068;SDS011;13887;57.196;-2.100;2022-08-25T14:53:08;17.57;;;16.03;;
22068;SDS011;13887;57.196;-2.100;2022-08-25T14:55:36;16.43;;;15.23;;
22068;SDS011;13887;57.196;-2.100;2022-08-25T14:58:05;17.10;;;15.57;;
22068;SDS011;13887;57.196;-2.100;2022-08-25T15:00:38;15.77;;;14.80;;
22068;SDS011;13887;57.196;-2.100;2022-08-25T15:03:13;16.00;;;14.90;;
22068;SDS011;13887;57.196;-2.100;2022-08-25T15:05:43;16.47;;;15.20;;
22068;SDS011;13887;57.196;-2.100;2022-08-25T15:08:10;16.10;;;14.67;;
22068;SDS011;13887;57.196;-2.100;2022-08-25T15:10:58;15.17;;;14.20;;
22068;SDS011;13887;57.196;-2.100;2022-08-25T15:13:26;16.37;;;15.20;;
22068;SDS011;13887;57.196;-2.100;2022-08-25T15:15:53;15.30;;;14.23;;
22068;SDS011;13887;57.196;-2.100;2022-08-25T15:18:23;16.53;;;15.20;;
22068;SDS011;13887;57.196;-2.100;2022-08-25T15:20:51;16.63;;;15.50;;
22068;SDS011;13887;57.196;-2.100;2022-08-25T15:23:18;15.97;;;15.17;;
22068;SDS011;13887;57.196;-2.100;2022-08-25T15:25:47;15.47;;;14.57;;
22068;SDS011;13887;57.196;-2.100;2022-08-25T15:28:18;15.97;;;14.80;;
22068;SDS011;13887;57.196;-2.100;2022-08-25T15:30:48;15.70;;;14.80;;
22068;SDS011;13887;57.196;-2.100;2022-08-25T15:33:16;15.87;;;14.77;;
22068;SDS011;13887;57.196;-2.100;2022-08-25T15:35:43;14.80;;;14.10;;
22068;SDS011;13887;57.196;-2.100;2022-08-25T15:38:11;15.53;;;14.53;;
22068;SDS011;13887;57.196;-2.100;2022-08-25T15:40:38;15.33;;;14.20;;
22068;SDS011;13887;57.196;-2.100;2022-08-25T15:43:05;15.43;;;14.70;;
22068;SDS011;13887;57.196;-2.100;2022-08-25T15:45:33;15.57;;;14.67;;
22068;SDS011;13887;57.196;-2.100;2022-08-25T15:48:02;15.40;;;14.40;;
22068;SDS011;13887;57.196;-2.100;2022-08-25T15:50:35;14.63;;;13.90;;
22068;SDS011;13887;57.196;-2.100;2022-08-25T15:53:04;14.70;;;13.90;;
22068;SDS011;13887;57.196;-2.100;2022-08-25T15:55:36;15.63;;;14.60;;
22068;SDS011;13887;57.196;-2.100;2022-08-25T15:58:05;15.27;;;14.40;;
22068;SDS011;13887;57.196;-2.100;2022-08-25T16:00:34;15.47;;;14.47;;
22068;SDS011;13887;57.196;-2.100;2022-08-25T16:03:03;15.13;;;14.23;;
22068;SDS011;13887;57.196;-2.100;2022-08-25T16:05:34;15.20;;;14.30;;
22068;SDS011;13887;57.196;-2.100;2022-08-25T16:08:03;15.10;;;14.40;;
22068;SDS011;13887;57.196;-2.100;2022-08-25T16:10:39;15.33;;;14.43;;
22068;SDS011;13887;57.196;-2.100;2022-08-25T16:13:08;14.27;;;13.57;;
22068;SDS011;13887;57.196;-2.100;2022-08-25T16:15:37;15.23;;;14.23;;
22068;SDS011;13887;57.196;-2.100;2022-08-25T16:18:04;14.63;;;13.83;;
22068;SDS011;13887;57.196;-2.100;2022-08-25T16:20:33;14.87;;;14.13;;
22068;SDS011;13887;57.196;-2.100;2022-08-25T16:23:00;14.93;;;14.27;;
22068;SDS011;13887;57.196;-2.100;2022-08-25T16:25:29;14.93;;;14.10;;
22068;SDS011;13887;57.196;-2.100;2022-08-25T16:27:56;14.83;;;13.83;;
22068;SDS011;13887;57.196;-2.100;2022-08-25T16:30:23;14.33;;;13.47;;
22068;SDS011;13887;57.196;-2.100;2022-08-25T16:32:50;14.60;;;13.60;;
22068;SDS011;13887;57.196;-2.100;2022-08-25T16:35:18;13.50;;;12.90;;
22068;SDS011;13887;57.196;-2.100;2022-08-25T16:37:45;12.93;;;12.43;;
22068;SDS011;13887;57.196;-2.100;2022-08-25T16:40:14;14.17;;;13.57;;
22068;SDS011;13887;57.196;-2.100;2022-08-25T16:42:43;14.70;;;13.57;;
22068;SDS011;13887;57.196;-2.100;2022-08-25T16:45:10;14.30;;;13.67;;
22068;SDS011;13887;57.196;-2.100;2022-08-25T16:47:37;13.60;;;12.80;;
22068;SDS011;13887;57.196;-2.100;2022-08-25T16:50:08;14.10;;;13.50;;
22068;SDS011;13887;57.196;-2.100;2022-08-25T16:52:36;13.40;;;12.80;;